Time;durP1;ratioP1;P1;durP2;ratioP2;P2;SDS_P1;SDS_P2;PMS_P1;PMS_P2;Temp;Humidity;BMP_temperature;BMP_pressure;BME280_temperature;BME280_humidity;BME280_pressure;Samples;Min_cycle;Max_cycle;Signal;HPM_P1;HPM_P2
2023/01/02 00:00:20;;;;;;;11.80;3.28;;;;;;;13.76;73.29;100836.38;5051590;28;20755;-61
2023/01/02 00:02:45;;;;;;;8.25;3.05;;;;;;;13.79;73.04;100840.66;5037249;28;20063;-61
2023/01/02 00:05:11;;;;;;;8.90;3.08;;;;;;;13.80;72.29;100831.97;5037150;28;20874;-61
2023/01/02 00:07:36;;;;;;;8.43;2.47;;;;;;;13.80;72.50;100829.38;5036336;28;22324;-62
2023/01/02 00:10:02;;;;;;;5.72;2.22;;;;;;;13.85;72.32;100814.56;5039906;28;20043;-62
2023/01/02 00:12:27;;;;;;;8.27;3.10;;;;;;;13.91;71.83;100817.03;5045439;28;20098;-61
2023/01/02 00:14:53;;;;;;;8.18;2.65;;;;;;;13.95;71.45;100808.28;5061297;28;20544;-62
2023/01/02 00:17:19;;;;;;;8.95;2.53;;;;;;;13.98;71.74;100816.84;5060723;28;20024;-62
2023/01/02 00:19:44;;;;;;;13.27;2.88;;;;;;;13.97;71.90;100811.69;5039955;28;20695;-61
2023/01/02 00:22:10;;;;;;;8.75;2.55;;;;;;;14.03;70.83;100804.63;5038669;28;20111;-61
2023/01/02 00:24:35;;;;;;;7.53;2.38;;;;;;;14.01;71.31;100801.19;5040163;28;20047;-61
2023/01/02 00:27:00;;;;;;;5.75;2.30;;;;;;;14.02;71.17;100794.25;5039018;28;20667;-61
2023/01/02 00:29:26;;;;;;;12.55;3.03;;;;;;;14.18;70.21;100786.97;5037960;28;20037;-61
2023/01/02 00:31:51;;;;;;;12.70;3.10;;;;;;;14.26;69.95;100779.84;5038066;28;20072;-61
2023/01/02 00:34:17;;;;;;;8.30;2.80;;;;;;;14.21;70.19;100789.50;5042225;28;20090;-61
2023/01/02 00:36:42;;;;;;;10.68;2.55;;;;;;;14.26;70.00;100788.50;5059690;28;20528;-61
2023/01/02 00:39:07;;;;;;;9.32;2.88;;;;;;;14.22;70.08;100793.81;5051547;28;20498;-61
2023/01/02 00:41:33;;;;;;;10.77;2.40;;;;;;;14.34;69.34;100776.16;5035798;28;20103;-61
2023/01/02 00:43:58;;;;;;;12.27;2.88;;;;;;;14.36;69.15;100784.81;5039313;28;20028;-61
2023/01/02 00:46:24;;;;;;;8.15;2.75;;;;;;;14.41;69.18;100776.91;5040487;28;20502;-61
2023/01/02 00:48:49;;;;;;;9.45;3.30;;;;;;;14.42;68.78;100779.50;5039114;28;20044;-62
2023/01/02 00:51:14;;;;;;;9.07;2.88;;;;;;;14.43;68.99;100768.19;5039510;28;20060;-61
2023/01/02 00:53:40;;;;;;;8.02;2.40;;;;;;;14.45;68.81;100768.16;5039997;28;20037;-62
2023/01/02 00:56:05;;;;;;;12.70;2.95;;;;;;;14.40;68.94;100757.84;5036875;28;20532;-62
2023/01/02 00:58:31;;;;;;;9.65;2.67;;;;;;;14.36;69.06;100764.00;5038500;28;20041;-61
2023/01/02 01:00:56;;;;;;;8.90;3.25;;;;;;;14.28;69.04;100765.91;5038053;28;20127;-62
2023/01/02 01:03:21;;;;;;;13.05;3.28;;;;;;;14.31;68.88;100757.19;5026970;28;20036;-62
2023/01/02 01:05:47;;;;;;;6.53;3.05;;;;;;;14.27;68.96;100765.97;5057520;28;20117;-62
2023/01/02 01:08:12;;;;;;;6.95;2.28;;;;;;;14.31;68.59;100762.38;5058281;28;20056;-62
2023/01/02 01:10:38;;;;;;;9.82;2.70;;;;;;;14.38;68.12;100751.00;5057347;28;20036;-62
2023/01/02 01:13:04;;;;;;;11.63;2.70;;;;;;;14.36;68.43;100758.81;5052004;28;20062;-61
2023/01/02 01:15:32;;;;;;;8.48;2.88;;;;;;;14.47;67.23;100745.56;5032093;28;20041;-61
2023/01/02 01:17:57;;;;;;;7.97;2.42;;;;;;;14.46;67.90;100760.31;5055560;28;20143;-61
2023/01/02 01:20:22;;;;;;;7.97;3.08;;;;;;;14.50;67.41;100759.34;5059040;28;20037;-62
2023/01/02 01:22:48;;;;;;;6.57;2.38;;;;;;;14.54;66.58;100753.16;5035377;28;20041;-61
2023/01/02 01:25:13;;;;;;;7.95;2.25;;;;;;;14.54;67.22;100754.94;5053045;28;20064;-61
2023/01/02 01:27:39;;;;;;;11.50;3.45;;;;;;;14.61;66.72;100753.88;5058039;28;20170;-62
2023/01/02 01:30:05;;;;;;;6.80;2.90;;;;;;;14.56;67.08;100768.75;5037707;28;20170;-62
2023/01/02 01:32:31;;;;;;;10.18;3.00;;;;;;;14.52;67.13;100775.78;5054293;28;20035;-61
2023/01/02 01:34:56;;;;;;;9.02;2.90;;;;;;;14.51;67.22;100768.84;5054468;28;20041;-62
2023/01/02 01:37:21;;;;;;;6.93;2.08;;;;;;;14.50;67.38;100772.38;5054193;28;20041;-62
2023/01/02 01:39:47;;;;;;;10.45;3.05;;;;;;;14.46;67.48;100775.06;5053709;28;20159;-61
2023/01/02 01:42:13;;;;;;;11.43;2.50;;;;;;;14.46;67.21;100770.72;5057998;28;20051;-62
2023/01/02 01:44:53;;;;;;;10.73;2.90;;;;;;;14.49;67.10;100774.97;5054814;28;20661;-62
2023/01/02 01:47:41;;;;;;;9.85;2.42;;;;;;;14.46;67.13;100768.13;5054176;28;20570;-62
2023/01/02 01:50:11;;;;;;;8.77;3.13;;;;;;;14.42;66.99;100774.31;5056269;28;20044;-62
2023/01/02 01:52:48;;;;;;;11.30;3.47;;;;;;;14.41;67.11;100780.38;5055670;28;20524;-62
2023/01/02 01:55:15;;;;;;;9.07;2.50;;;;;;;14.41;67.27;100776.91;5056320;28;20051;-62
2023/01/02 01:57:53;;;;;;;9.60;3.08;;;;;;;14.44;66.91;100776.84;5053319;28;20040;-62
2023/01/02 02:00:19;;;;;;;11.23;2.88;;;;;;;14.42;66.90;100769.09;5053677;28;20086;-58
2023/01/02 02:02:48;;;;;;;9.85;3.00;;;;;;;14.41;66.85;100777.78;5053678;28;20048;-58
2023/01/02 02:05:19;;;;;;;18.77;3.40;;;;;;;14.41;66.77;100775.19;5048758;28;20040;-58
2023/01/02 02:08:07;;;;;;;8.98;2.60;;;;;;;14.44;66.54;100787.25;5051582;28;20033;-58
2023/01/02 02:10:32;;;;;;;12.13;2.80;;;;;;;14.48;66.15;100773.28;5055710;28;20076;-58
2023/01/02 02:12:58;;;;;;;11.65;2.78;;;;;;;14.47;66.66;100775.03;5055288;28;20547;-58
2023/01/02 02:15:50;;;;;;;9.90;3.20;;;;;;;14.49;66.46;100778.44;5051689;28;20044;-58
2023/01/02 02:18:16;;;;;;;14.20;3.17;;;;;;;14.58;65.57;100778.22;5053047;28;20085;-59
2023/01/02 02:21:24;;;;;;;9.48;2.72;;;;;;;14.55;66.02;100774.84;5055593;28;20020;-58
2023/01/02 02:24:05;;;;;;;7.80;3.05;;;;;;;14.59;65.67;100774.75;5035439;28;20131;-58
2023/01/02 02:26:52;;;;;;;8.75;2.85;;;;;;;14.60;65.44;100767.78;5055507;28;20047;-58
2023/01/02 02:29:48;;;;;;;8.18;2.88;;;;;;;14.57;65.50;100776.50;5054637;28;20041;-58
2023/01/02 02:32:20;;;;;;;9.52;2.70;;;;;;;14.54;65.50;100773.16;5052072;28;20036;-58
2023/01/02 02:34:55;;;;;;;10.45;2.75;;;;;;;14.51;65.95;100770.63;5046974;28;20043;-58
2023/01/02 02:37:32;;;;;;;10.75;2.50;;;;;;;14.47;66.04;100780.22;5050025;28;20037;-58
2023/01/02 02:40:14;;;;;;;7.55;2.88;;;;;;;14.49;65.54;100764.56;5048609;28;20044;-58
2023/01/02 02:42:58;;;;;;;7.18;2.60;;;;;;;14.44;66.11;100769.03;5054169;28;20045;-58
2023/01/02 02:45:42;;;;;;;9.95;2.88;;;;;;;14.39;66.18;100760.50;5051497;28;20847;-59
2023/01/02 02:48:20;;;;;;;7.55;2.83;;;;;;;14.47;65.08;100746.44;5048066;28;20123;-58
2023/01/02 02:51:06;;;;;;;10.20;3.10;;;;;;;14.53;64.69;100737.63;5048686;28;20069;-58
2023/01/02 02:53:41;;;;;;;8.27;2.28;;;;;;;14.52;65.20;100764.50;5047804;28;20072;-58
2023/01/02 02:56:09;;;;;;;8.75;3.20;;;;;;;14.45;65.56;100762.97;5050555;28;20052;-58
2023/01/02 02:58:35;;;;;;;10.23;2.75;;;;;;;14.42;65.79;100769.09;5052400;28;20544;-58
2023/01/02 03:01:14;;;;;;;5.30;2.42;;;;;;;14.47;64.93;100753.38;5053006;28;20029;-58
2023/01/02 03:03:39;;;;;;;10.43;2.55;;;;;;;14.41;65.47;100758.72;5054280;28;20028;-58
2023/01/02 03:06:18;;;;;;;8.52;2.80;;;;;;;14.37;65.74;100763.09;5040908;28;20071;-58
2023/01/02 03:09:31;;;;;;;7.32;2.50;;;;;;;14.34;65.34;100765.78;5053357;28;20028;-58
2023/01/02 03:12:32;;;;;;;10.18;3.13;;;;;;;14.31;65.69;100765.84;5065638;28;20048;-58
2023/01/02 03:15:15;;;;;;;9.55;2.67;;;;;;;14.31;65.15;100746.78;5027160;28;20675;-58
2023/01/02 03:17:43;;;;;;;12.70;3.17;;;;;;;14.27;65.61;100751.22;5058389;28;20518;-58
2023/01/02 03:20:12;;;;;;;8.90;2.85;;;;;;;14.25;65.47;100755.59;5053518;28;20032;-58
2023/01/02 03:22:45;;;;;;;4.80;2.42;;;;;;;14.26;65.57;100746.91;5057981;28;20044;-58
2023/01/02 03:25:13;;;;;;;10.13;2.70;;;;;;;14.33;64.81;100742.41;5057943;28;20765;-58
2023/01/02 03:27:43;;;;;;;6.88;2.58;;;;;;;14.39;65.14;100758.78;5055123;28;20048;-59
2023/01/02 03:30:21;;;;;;;14.02;2.60;;;;;;;14.34;65.17;100752.78;5055958;28;20045;-58
2023/01/02 03:32:46;;;;;;;11.05;2.80;;;;;;;14.34;64.64;100749.31;5059005;28;20025;-59
2023/01/02 03:35:16;;;;;;;13.10;3.28;;;;;;;14.33;64.96;100750.22;5058700;28;20025;-59
2023/01/02 03:37:47;;;;;;;12.90;3.00;;;;;;;14.30;65.06;100760.69;5061115;28;20040;-58
2023/01/02 03:40:18;;;;;;;9.75;2.50;;;;;;;14.25;65.29;100759.94;5062445;28;20501;-58
2023/01/02 03:42:51;;;;;;;7.60;2.85;;;;;;;14.20;65.33;100775.66;5063267;28;20143;-58
2023/01/02 03:45:27;;;;;;;11.43;2.92;;;;;;;14.18;65.45;100773.97;5062454;28;20040;-60
2023/01/02 03:48:08;;;;;;;9.77;2.88;;;;;;;14.21;65.32;100769.56;5057158;28;20063;-58
2023/01/02 03:50:45;;;;;;;11.35;2.38;;;;;;;14.23;65.45;100766.91;5061279;28;20021;-58
2023/01/02 03:53:10;;;;;;;15.55;2.92;;;;;;;14.24;65.04;100768.63;5061004;28;20044;-58
2023/01/02 03:55:38;;;;;;;11.38;2.90;;;;;;;14.28;64.97;100758.13;5061304;28;20036;-60
2023/01/02 03:58:16;;;;;;;9.70;2.50;;;;;;;14.32;64.40;100753.69;5058435;28;20516;-58
2023/01/02 04:00:57;;;;;;;9.00;2.30;;;;;;;14.34;64.38;100755.38;5063010;28;20048;-58
2023/01/02 04:03:34;;;;;;;12.32;2.97;;;;;;;14.37;64.60;100759.63;5059530;28;20041;-58
2023/01/02 04:06:08;;;;;;;8.98;2.83;;;;;;;14.36;64.29;100756.22;5045161;28;20032;-58
2023/01/02 04:09:02;;;;;;;9.95;2.72;;;;;;;14.34;64.77;100757.97;5055862;28;20020;-58
2023/01/02 04:11:29;;;;;;;11.85;2.83;;;;;;;14.34;64.04;100737.16;5052546;28;20041;-58
2023/01/02 04:13:59;;;;;;;10.50;2.38;;;;;;;14.35;64.63;100751.03;5054618;28;20036;-58
2023/01/02 04:16:30;;;;;;;10.20;3.22;;;;;;;14.28;64.84;100759.84;5049492;28;20799;-58
2023/01/02 04:19:08;;;;;;;11.50;3.35;;;;;;;14.32;64.14;100757.16;5059315;28;20067;-58
2023/01/02 04:21:37;;;;;;;16.17;4.15;;;;;;;14.29;64.80;100761.56;5054400;28;20040;-58
2023/01/02 04:24:05;;;;;;;10.77;2.88;;;;;;;14.26;64.81;100772.91;5058874;28;20020;-58
2023/01/02 04:26:37;;;;;;;9.63;2.75;;;;;;;14.30;64.22;100758.94;5052001;28;20041;-58
2023/01/02 04:29:02;;;;;;;16.67;2.90;;;;;;;14.26;64.59;100774.66;5057608;28;20029;-58
2023/01/02 04:31:37;;;;;;;11.98;3.47;;;;;;;14.26;65.29;100782.44;5056158;28;20531;-58
2023/01/02 04:34:04;;;;;;;;;;;;;;;14.27;65.30;100781.56;5054590;28;20035;-58
2023/01/02 04:36:29;;;;;;;12.55;3.35;;;;;;;14.32;64.10;100775.38;5049453;28;19927;-58
2023/01/02 04:38:55;;;;;;;10.40;2.75;;;;;;;14.29;64.58;100775.44;5052295;28;20541;-59
2023/01/02 04:41:25;;;;;;;11.38;2.88;;;;;;;14.27;64.21;100773.75;5052953;28;20044;-58
2023/01/02 04:43:55;;;;;;;7.18;2.42;;;;;;;14.28;64.65;100780.66;5058084;28;20132;-58
2023/01/02 04:46:20;;;;;;;11.73;2.90;;;;;;;14.26;64.23;100772.91;5060715;28;20048;-59
2023/01/02 04:48:46;;;;;;;8.48;2.92;;;;;;;14.28;63.90;100785.84;5040313;28;20028;-58
2023/01/02 04:51:11;;;;;;;9.73;2.78;;;;;;;14.27;64.67;100790.22;5057813;28;20064;-59
2023/01/02 04:53:37;;;;;;;10.52;2.58;;;;;;;14.27;64.61;100786.75;5057284;28;20033;-58
2023/01/02 04:56:03;;;;;;;6.32;3.00;;;;;;;14.28;63.82;100788.44;5054823;28;20049;-62
2023/01/02 04:58:28;;;;;;;7.32;2.85;;;;;;;14.27;64.43;100787.63;5058597;28;20075;-58
2023/01/02 05:00:53;;;;;;;10.82;3.10;;;;;;;14.30;63.90;100792.75;5052189;28;20549;-58
2023/01/02 05:03:19;;;;;;;11.30;3.25;;;;;;;14.31;63.49;100797.03;5059185;28;20040;-58
2023/01/02 05:05:44;;;;;;;8.88;2.67;;;;;;;14.28;64.38;100791.91;5045964;28;20554;-58
2023/01/02 05:08:10;;;;;;;16.05;3.08;;;;;;;14.26;63.99;100790.25;5053306;28;20044;-58
2023/01/02 05:10:35;;;;;;;12.38;3.10;;;;;;;14.27;64.39;100789.38;5056883;28;20378;-58
2023/01/02 05:13:00;;;;;;;9.93;3.13;;;;;;;14.25;63.95;100789.38;5054712;28;20040;-58
2023/01/02 05:15:26;;;;;;;12.77;2.90;;;;;;;14.29;63.42;100783.22;5058045;28;20143;-58
2023/01/02 05:17:51;;;;;;;12.52;3.20;;;;;;;14.35;63.63;100783.09;5043478;28;20064;-59
2023/01/02 05:20:17;;;;;;;11.93;2.83;;;;;;;14.36;63.19;100787.41;5052968;28;20051;-58
2023/01/02 05:25:31;;;;;;;15.50;3.33;;;;;;;14.37;63.21;100789.09;5057857;28;20052;-59
2023/01/02 05:27:56;;;;;;;11.50;2.72;;;;;;;14.38;63.17;100798.66;5056454;28;20045;-59
2023/01/02 05:30:22;;;;;;;8.15;3.03;;;;;;;14.43;62.84;100798.53;5055859;28;20078;-59
2023/01/02 05:32:48;;;;;;;8.93;2.95;;;;;;;14.41;63.03;100800.31;5055333;28;20107;-58
2023/01/02 05:35:14;;;;;;;11.80;2.78;;;;;;;14.38;63.41;100810.78;5055759;28;20032;-58
2023/01/02 05:37:39;;;;;;;7.22;2.70;;;;;;;14.36;63.61;100820.34;5032009;28;20568;-59
2023/01/02 05:40:05;;;;;;;9.52;2.55;;;;;;;14.37;63.37;100828.09;5055668;28;20048;-58
2023/01/02 05:42:30;;;;;;;11.90;3.22;;;;;;;14.48;62.79;100807.94;5057134;28;20036;-58
2023/01/02 05:44:56;;;;;;;10.65;2.75;;;;;;;14.50;62.60;100811.38;5051448;28;20025;-59
2023/01/02 05:47:21;;;;;;;9.63;2.40;;;;;;;14.47;62.73;100807.97;5058853;28;20032;-59
2023/01/02 05:49:47;;;;;;;14.60;3.10;;;;;;;14.49;62.38;100801.00;5055140;28;20127;-58
2023/01/02 05:52:12;;;;;;;7.93;2.70;;;;;;;14.46;63.01;100814.06;5057251;28;20036;-58
2023/01/02 05:54:38;;;;;;;10.80;2.72;;;;;;;14.48;62.46;100813.13;5055651;28;20036;-58
2023/01/02 05:57:03;;;;;;;10.68;2.60;;;;;;;14.47;62.56;100818.38;5049018;28;20119;-59
2023/01/02 05:59:28;;;;;;;16.63;3.47;;;;;;;14.45;62.96;100827.97;5056642;28;20041;-58
2023/01/02 06:01:54;;;;;;;13.30;2.75;;;;;;;14.45;63.00;100818.44;5055293;28;20039;-58
2023/01/02 06:04:19;;;;;;;12.63;2.78;;;;;;;14.44;63.04;100821.06;5052209;28;20036;-58
2023/01/02 06:06:45;;;;;;;12.52;3.00;;;;;;;14.40;62.82;100822.00;5049436;28;20047;-58
2023/01/02 06:09:12;;;;;;;9.75;2.63;;;;;;;14.42;62.91;100823.72;5052861;28;20063;-58
2023/01/02 06:11:38;;;;;;;9.85;2.95;;;;;;;14.41;63.18;100822.00;5055011;28;20032;-59
2023/01/02 06:14:03;;;;;;;12.13;2.63;;;;;;;14.43;63.21;100811.53;5057943;28;20153;-58
2023/01/02 06:16:29;;;;;;;12.60;3.10;;;;;;;14.37;63.48;100833.31;5057212;28;20032;-59
2023/01/02 06:18:54;;;;;;;10.85;2.70;;;;;;;14.34;63.20;100824.72;5053076;28;20869;-59
2023/01/02 06:21:21;;;;;;;13.10;3.25;;;;;;;14.35;63.03;100839.44;5058150;28;20040;-58
2023/01/02 06:23:47;;;;;;;11.32;2.95;;;;;;;14.28;63.49;100830.91;5055847;28;20035;-59
2023/01/02 06:26:18;;;;;;;11.27;2.70;;;;;;;14.29;63.15;100839.56;5050203;28;20467;-58
2023/01/02 06:28:44;;;;;;;9.40;2.22;;;;;;;14.30;63.36;100836.97;5052258;28;20766;-58
2023/01/02 06:31:13;;;;;;;5.65;2.67;;;;;;;14.27;63.53;100837.03;5054924;28;20051;-58
2023/01/02 06:33:39;;;;;;;14.35;2.90;;;;;;;14.22;63.77;100841.44;5032560;28;20028;-58
2023/01/02 06:36:07;;;;;;;8.13;2.90;;;;;;;14.22;63.45;100844.03;5047819;28;20025;-58
2023/01/02 06:38:33;;;;;;;10.80;2.88;;;;;;;14.22;63.40;100845.81;5054367;28;20021;-58
2023/01/02 06:41:00;;;;;;;9.80;2.72;;;;;;;14.20;63.94;100855.38;5051517;28;20047;-58
2023/01/02 06:43:27;;;;;;;8.82;3.13;;;;;;;14.13;64.15;100850.31;5055858;28;20047;-58
2023/01/02 06:45:56;;;;;;;14.27;2.92;;;;;;;14.15;63.64;100852.03;5056586;28;20101;-58
2023/01/02 06:48:21;;;;;;;5.90;2.47;;;;;;;14.15;64.30;100859.81;5040898;28;20045;-58
2023/01/02 06:50:47;;;;;;;7.97;2.47;;;;;;;14.17;63.65;100845.91;5056886;28;20078;-59
2023/01/02 06:53:12;;;;;;;11.30;3.63;;;;;;;14.18;64.08;100859.75;5052518;28;20020;-59
2023/01/02 06:55:38;;;;;;;9.50;2.40;;;;;;;14.23;63.96;100848.38;5050850;28;20078;-58
2023/01/02 06:58:03;;;;;;;10.45;3.17;;;;;;;14.19;63.72;100851.09;5031482;28;20037;-65
2023/01/02 07:00:29;;;;;;;10.65;2.63;;;;;;;14.09;64.56;100864.28;5054320;28;20845;-65
2023/01/02 07:02:54;;;;;;;9.75;2.72;;;;;;;14.02;64.60;100867.03;5055407;28;20734;-64
2023/01/02 07:05:20;;;;;;;7.68;3.00;;;;;;;13.99;64.95;100874.88;5053685;28;20060;-64
2023/01/02 07:07:45;;;;;;;13.02;2.72;;;;;;;13.94;65.30;100882.78;5049856;28;20036;-64
2023/01/02 07:10:10;;;;;;;12.88;3.30;;;;;;;13.91;64.92;100884.59;5040559;28;20511;-66
2023/01/02 07:12:36;;;;;;;10.07;2.97;;;;;;;13.92;65.20;100894.94;5053571;28;20245;-64
2023/01/02 07:15:05;;;;;;;10.20;3.35;;;;;;;13.90;65.49;100906.25;5054965;28;20472;-64
2023/01/02 07:17:32;;;;;;;11.85;3.33;;;;;;;13.89;65.20;100896.75;5053303;28;20116;-65
2023/01/02 07:19:58;;;;;;;14.98;2.92;;;;;;;13.85;65.44;100898.56;5051111;28;20043;-65
2023/01/02 07:22:24;;;;;;;12.57;3.10;;;;;;;13.81;65.49;100896.03;5052292;28;20044;-65
2023/01/02 07:24:50;;;;;;;10.55;3.08;;;;;;;13.78;65.50;100902.16;5055624;28;20102;-65
2023/01/02 07:27:15;;;;;;;11.30;3.22;;;;;;;13.73;65.86;100911.78;5051803;28;20040;-64
2023/01/02 07:29:40;;;;;;;13.07;3.47;;;;;;;13.70;66.02;100914.44;5050638;28;20120;-63
2023/01/02 07:32:06;;;;;;;11.48;3.33;;;;;;;13.67;66.21;100916.22;5016194;28;20037;-66
2023/01/02 07:34:31;;;;;;;10.35;3.05;;;;;;;13.71;66.17;100915.28;5054416;28;20068;-65
2023/01/02 07:36:56;;;;;;;11.38;3.10;;;;;;;13.69;66.43;100925.69;5035350;28;20122;-65
2023/01/02 07:39:22;;;;;;;10.35;3.05;;;;;;;13.69;66.17;100925.69;5051871;28;20523;-65
2023/01/02 07:41:48;;;;;;;9.55;3.33;;;;;;;13.77;65.54;100918.59;5053971;28;20032;-65
2023/01/02 07:44:13;;;;;;;14.05;3.40;;;;;;;13.76;65.75;100921.25;5055417;28;20017;-66
2023/01/02 07:46:38;;;;;;;9.25;3.10;;;;;;;13.74;65.88;100923.88;5056027;28;20659;-66
2023/01/02 07:49:04;;;;;;;7.10;2.58;;;;;;;13.74;65.64;100921.25;5049380;28;20044;-66
2023/01/02 07:51:30;;;;;;;8.80;2.67;;;;;;;13.73;65.53;100919.56;5030625;28;20044;-65
2023/01/02 07:53:56;;;;;;;9.32;3.05;;;;;;;13.74;65.76;100918.66;5051886;28;20036;-65
2023/01/02 07:56:21;;;;;;;7.93;2.60;;;;;;;13.74;65.70;100915.25;5054801;28;20084;-65
2023/01/02 07:58:46;;;;;;;9.05;3.53;;;;;;;13.80;65.07;100907.31;5049381;28;20126;-59
2023/01/02 08:01:12;;;;;;;9.95;2.53;;;;;;;13.77;65.48;100920.38;5044851;28;20537;-59
2023/01/02 08:03:38;;;;;;;8.93;3.47;;;;;;;13.74;65.69;100923.88;5037153;28;20032;-59
2023/01/02 08:06:10;;;;;;;10.40;2.63;;;;;;;13.78;65.44;100929.88;5047214;28;20029;-59
2023/01/02 08:08:36;;;;;;;8.63;3.00;;;;;;;13.77;65.77;100946.34;5030820;28;20111;-59
2023/01/02 08:11:06;;;;;;;13.55;2.90;;;;;;;13.83;65.86;100954.03;5050090;28;20443;-64
2023/01/02 08:13:32;;;;;;;9.70;2.42;;;;;;;13.83;65.54;100960.06;5054065;28;20127;-63
2023/01/02 08:15:57;;;;;;;12.95;2.92;;;;;;;13.82;66.12;100966.16;5055543;28;20762;-66
2023/01/02 08:18:22;;;;;;;7.93;3.00;;;;;;;13.85;65.66;100962.66;5037916;28;20047;-66
2023/01/02 08:20:48;;;;;;;6.72;2.13;;;;;;;13.86;66.23;100977.38;5055109;28;20051;-65
2023/01/02 08:23:13;;;;;;;15.85;3.40;;;;;;;13.84;66.12;100972.19;5054784;28;20066;-65
2023/01/02 08:25:38;;;;;;;15.18;2.83;;;;;;;13.82;66.65;100980.91;5058645;28;20512;-65
2023/01/02 08:28:04;;;;;;;9.50;2.80;;;;;;;13.79;66.75;100993.94;5059525;28;20045;-65
2023/01/02 08:30:29;;;;;;;12.70;2.30;;;;;;;13.77;66.86;101001.75;5049155;28;20048;-65
2023/01/02 08:32:55;;;;;;;10.23;2.75;;;;;;;13.77;66.67;101011.31;5049789;28;20048;-66
2023/01/02 08:35:21;;;;;;;8.98;2.92;;;;;;;13.75;67.28;101013.91;5056124;28;20070;-66
2023/01/02 08:37:46;;;;;;;15.73;3.17;;;;;;;13.75;67.65;101026.03;5055735;28;20055;-65
2023/01/02 08:40:12;;;;;;;6.93;2.25;;;;;;;13.73;67.87;101025.22;5054803;28;20037;-63
2023/01/02 08:42:41;;;;;;;9.50;2.55;;;;;;;13.72;67.87;101032.16;5052441;28;20044;-62
2023/01/02 08:45:07;;;;;;;19.23;3.13;;;;;;;13.77;67.50;101029.50;5057029;28;20098;-63
2023/01/02 08:47:33;;;;;;;9.80;2.35;;;;;;;13.81;67.45;101037.19;5056825;28;20029;-62
2023/01/02 08:49:58;;;;;;;12.13;2.05;;;;;;;13.85;67.37;101040.59;5050310;28;20039;-63
2023/01/02 08:52:23;;;;;;;9.55;2.83;;;;;;;13.87;67.12;101051.81;5056794;28;20598;-63
2023/01/02 08:54:49;;;;;;;7.50;2.38;;;;;;;13.86;68.10;101076.09;5053057;28;20976;-62
2023/01/02 08:57:15;;;;;;;9.77;2.67;;;;;;;13.79;68.88;101085.75;5052785;28;20045;-62
2023/01/02 08:59:41;;;;;;;6.07;2.38;;;;;;;13.73;70.17;101103.16;5055944;28;20025;-62
2023/01/02 09:02:06;;;;;;;6.50;2.53;;;;;;;13.58;72.37;101117.25;5050396;28;20067;-62
2023/01/02 09:04:31;;;;;;;7.75;2.55;;;;;;;13.41;75.14;101116.63;5053948;28;20123;-65
2023/01/02 09:06:57;;;;;;;5.53;2.70;;;;;;;13.24;76.86;101113.41;5051168;28;20554;-66
2023/01/02 09:09:22;;;;;;;6.03;2.60;;;;;;;13.07;78.74;101118.81;5055533;28;20054;-65
2023/01/02 09:11:51;;;;;;;9.85;2.65;;;;;;;12.91;80.08;101122.47;5054443;28;20036;-65
2023/01/02 09:14:19;;;;;;;7.00;3.17;;;;;;;12.80;81.12;101119.13;5058599;28;20032;-66
2023/01/02 09:16:45;;;;;;;12.23;2.63;;;;;;;12.70;83.14;101130.50;5053753;28;20041;-66
2023/01/02 09:19:11;;;;;;;6.53;2.10;;;;;;;12.63;83.57;101134.91;5056882;28;20516;-62
2023/01/02 09:21:36;;;;;;;6.22;2.28;;;;;;;12.55;84.78;101139.31;5053088;28;20131;-62
2023/01/02 09:24:02;;;;;;;6.28;2.72;;;;;;;12.51;86.04;101141.94;5056769;28;20041;-62
2023/01/02 09:26:27;;;;;;;7.30;1.80;;;;;;;12.45;87.24;101155.81;5056075;28;20040;-65
2023/01/02 09:28:52;;;;;;;5.55;1.65;;;;;;;12.41;88.08;101157.56;5053997;28;20040;-61
2023/01/02 09:31:19;;;;;;;2.75;1.30;;;;;;;12.39;87.59;101163.66;5053644;28;20040;-62
2023/01/02 09:33:46;;;;;;;7.32;1.73;;;;;;;12.31;87.97;101162.88;5056062;28;20095;-59
2023/01/02 09:36:13;;;;;;;6.45;1.98;;;;;;;12.25;89.02;101173.28;5039621;28;20048;-60
2023/01/02 09:38:39;;;;;;;4.35;1.40;;;;;;;12.20;88.95;101181.09;5054335;28;20034;-59
2023/01/02 09:41:12;;;;;;;2.95;1.30;;;;;;;12.11;89.38;101178.56;5050471;28;20036;-59
2023/01/02 09:43:50;;;;;;;5.45;1.33;;;;;;;12.06;89.38;101176.91;5054499;28;20052;-59
2023/01/02 09:46:25;;;;;;;6.55;1.70;;;;;;;12.01;90.34;101184.72;5055689;28;20037;-59
2023/01/02 09:48:50;;;;;;;;;;;;;;;11.97;90.51;101192.50;5053822;28;20377;-58
2023/01/02 09:51:16;;;;;;;2.88;0.90;;;;;;;11.94;90.74;101190.81;5054571;28;20373;-61
2023/01/02 09:53:41;;;;;;;3.00;1.25;;;;;;;11.93;90.99;101199.44;5053668;28;20033;-61
2023/01/02 09:56:23;;;;;;;2.03;0.90;;;;;;;11.92;90.81;101202.91;5052290;28;20098;-62
2023/01/02 09:58:56;;;;;;;3.20;1.27;;;;;;;11.89;91.41;101203.81;5051902;28;20045;-62
2023/01/02 10:01:36;;;;;;;2.47;1.20;;;;;;;11.87;91.00;101218.47;5053663;28;20040;-61
2023/01/02 10:04:13;;;;;;;2.25;0.90;;;;;;;11.85;91.01;101219.34;5055778;28;20179;-62
2023/01/02 10:06:50;;;;;;;3.63;0.80;;;;;;;11.88;91.01;101219.34;5053878;28;20051;-61
2023/01/02 10:09:41;;;;;;;3.00;0.90;;;;;;;11.89;90.91;101224.53;5050190;28;20079;-66
2023/01/02 10:12:28;;;;;;;3.00;0.70;;;;;;;11.94;90.79;101221.03;5052830;28;20037;-66
2023/01/02 10:15:00;;;;;;;2.63;0.80;;;;;;;11.97;90.81;101227.06;5051311;28;20544;-66
2023/01/02 10:17:32;;;;;;;1.58;0.90;;;;;;;12.02;90.67;101214.09;5052613;28;20432;-66
2023/01/02 10:20:12;;;;;;;2.90;0.70;;;;;;;12.02;90.34;101216.69;5052426;28;20041;-65
2023/01/02 10:22:44;;;;;;;2.55;1.05;;;;;;;12.00;89.37;101219.25;5054394;28;20047;-65
2023/01/02 10:25:35;;;;;;;1.00;0.73;;;;;;;11.95;88.14;101225.34;5052576;28;20040;-66
2023/01/02 10:28:32;;;;;;;4.13;0.80;;;;;;;11.92;87.49;101221.06;5048034;28;20044;-66
2023/01/02 10:31:09;;;;;;;0.85;0.52;;;;;;;11.89;86.29;101218.47;5053391;28;20036;-62
2023/01/02 10:33:44;;;;;;;0.43;0.40;;;;;;;11.87;84.63;101223.66;5049340;28;20067;-62
2023/01/02 10:36:33;;;;;;;1.63;0.50;;;;;;;11.86;85.32;101224.56;5046345;28;20397;-62
2023/01/02 10:39:05;;;;;;;2.38;0.75;;;;;;;11.82;85.72;101229.75;5048353;28;20101;-65
2023/01/02 10:41:32;;;;;;;2.28;0.43;;;;;;;11.80;85.01;101239.25;5054439;28;20021;-61
2023/01/02 10:44:04;;;;;;;0.85;0.73;;;;;;;11.77;85.63;101237.56;5052115;28;20048;-65
2023/01/02 10:46:34;;;;;;;0.82;0.40;;;;;;;11.76;86.32;101234.94;5056149;28;20041;-61
2023/01/02 10:49:00;;;;;;;0.82;0.40;;;;;;;11.77;86.71;101236.69;5046660;28;20039;-62
2023/01/02 10:51:25;;;;;;;2.05;0.75;;;;;;;11.77;87.42;101237.56;5055808;28;20857;-58
2023/01/02 10:54:00;;;;;;;3.78;0.82;;;;;;;11.77;87.42;101242.72;5054136;28;20036;-58
2023/01/02 10:56:29;;;;;;;0.82;0.40;;;;;;;11.78;87.38;101244.44;5056231;28;20032;-62
2023/01/02 10:58:54;;;;;;;1.00;0.50;;;;;;;11.80;87.11;101249.63;5053363;28;20148;-61
2023/01/02 11:01:21;;;;;;;1.73;0.95;;;;;;;11.79;87.67;101240.13;5053939;28;20049;-61
2023/01/02 11:03:56;;;;;;;10.98;5.35;;;;;;;11.75;87.17;101241.84;5046424;28;20781;-62
2023/01/02 11:06:26;;;;;;;9.90;7.88;;;;;;;11.73;87.64;101241.03;5054506;28;20120;-62
2023/01/02 11:09:18;;;;;;;5.20;4.70;;;;;;;11.73;88.29;101241.03;5050542;28;20020;-61
2023/01/02 11:11:55;;;;;;;3.47;2.88;;;;;;;11.70;87.99;101228.09;5050392;28;20036;-61
2023/01/02 11:14:26;;;;;;;3.75;2.75;;;;;;;11.69;88.67;101235.88;5051455;28;20040;-63
2023/01/02 11:16:53;;;;;;;3.28;2.00;;;;;;;11.67;88.72;101232.41;5054411;28;20043;-62
2023/01/02 11:19:21;;;;;;;2.25;1.30;;;;;;;11.70;89.10;101238.44;5054063;28;20185;-60
2023/01/02 11:21:48;;;;;;;2.17;1.58;;;;;;;11.72;88.73;101230.69;5036667;28;20667;-60
2023/01/02 11:24:18;;;;;;;1.52;1.02;;;;;;;11.77;88.89;101237.56;5053887;28;20044;-60
2023/01/02 11:26:46;;;;;;;2.97;0.70;;;;;;;11.80;88.51;101234.06;5053355;28;20974;-60
2023/01/02 11:29:21;;;;;;;4.28;3.55;;;;;;;11.86;88.21;101229.72;5052388;28;20036;-61
2023/01/02 11:31:50;;;;;;;9.73;6.78;;;;;;;11.94;88.10;101234.84;5049391;28;20897;-61
2023/01/02 11:34:37;;;;;;;6.47;5.15;;;;;;;11.99;87.82;101243.44;5052093;28;20751;-61